»·PEaware :: N900TS KSNA-KCLR

N900TS :: KSNA-KCLR

FLIGHT INFORMATION

Flight Status: Arrived
Operator: Privately registered:
United States
More flights under this callsign
Pilot: Vlad D. (11271)
Aircraft: SOCATA TBM-900
(TBM9)
More flights by this aircraft type
Origin: KSNA John Wayne-Orange Co
United States
Destination: KCLR Cliff Hatfield Meml
United States
More flights between these airports :: More routes between these airports
Route: +V25 PACIF V208 JLI V460 BOREN
File this flight plan on PilotEdge
Remarks:
Altitude:
(Current/Filed)
13,000ft
Speed:
(Current/Filed)
220kts
Departed: 29-Mar-19 06:31 PM
Arrived: 29-Mar-19 07:20 PM
Distance/Time
Traveled:
122nm/0:49
Distance/Time
To Go:
Arrived

Flight Plot

Page will automatically refresh every two minutes.

Flight plan parsing failed; only flown route is shown


Map Options




Map Legend


Flown Route
Filed Route
Departure Airport
Arrival Airport
Navaid (VOR, NDB)
Fix

Horizontal Profiles

Position Reports

Time Latitude Longitude Heading Altitude Ground
Speed
29-Mar-19 17:55 33.672772 -117.872861 210 52ft 0kts
29-Mar-19 17:56 33.672772 -117.872861 210 52ft 0kts
29-Mar-19 17:57 33.672772 -117.872861 210 52ft 0kts
29-Mar-19 17:58 33.672772 -117.872861 210 52ft 0kts
29-Mar-19 17:59 33.672772 -117.872861 210 52ft 0kts
29-Mar-19 18:00 33.672772 -117.872861 210 52ft 0kts
29-Mar-19 18:01 33.672772 -117.872861 210 52ft 0kts
29-Mar-19 18:02 33.672772 -117.872861 210 52ft 0kts
29-Mar-19 18:03 33.672772 -117.872861 210 52ft 0kts
29-Mar-19 18:04 33.672772 -117.872861 210 52ft 0kts
29-Mar-19 18:05 33.672772 -117.872861 210 52ft 0kts
29-Mar-19 18:06 33.672772 -117.872861 210 52ft 0kts
29-Mar-19 18:07 33.672772 -117.872861 210 52ft 0kts
29-Mar-19 18:08 33.672772 -117.872861 210 52ft 0kts
29-Mar-19 18:09 33.672772 -117.872861 210 52ft 0kts
29-Mar-19 18:10 33.672772 -117.872861 210 52ft 0kts
29-Mar-19 18:11 33.672772 -117.872861 210 52ft 0kts
29-Mar-19 18:12 33.672772 -117.872861 210 52ft 0kts
29-Mar-19 18:13 33.672772 -117.872861 210 52ft 0kts
29-Mar-19 18:14 33.672772 -117.872861 210 52ft 0kts
29-Mar-19 18:15 33.672772 -117.872861 210 52ft 0kts
29-Mar-19 18:16 33.672772 -117.872861 210 52ft 0kts
29-Mar-19 18:17 33.672772 -117.872861 210 52ft 0kts
29-Mar-19 18:18 33.672772 -117.872861 210 52ft 0kts
29-Mar-19 18:19 33.672772 -117.872861 210 52ft 0kts
29-Mar-19 18:20 33.672772 -117.872861 210 52ft 0kts
29-Mar-19 18:21 33.672772 -117.872861 210 52ft 0kts
29-Mar-19 18:22 33.672772 -117.872861 210 52ft 0kts
29-Mar-19 18:23 33.672772 -117.872861 210 52ft 0kts
29-Mar-19 18:24 33.672560 -117.872578 114 52ft 6kts
29-Mar-19 18:25 33.675005 -117.870790 27 52ft 11kts
29-Mar-19 18:26 33.678075 -117.868843 26 52ft 12kts
29-Mar-19 18:27 33.680852 -117.867282 28 52ft 10kts
29-Mar-19 18:28 33.681215 -117.866430 117 52ft 0kts
29-Mar-19 18:29 33.680447 -117.865826 208 52ft 0kts
29-Mar-19 18:30 33.669194 -117.871726 194 313ft 104kts
29-Mar-19 18:31 33.635046 -117.874959 186 1878ft 143kts
29-Mar-19 18:32 33.593039 -117.878196 186 3643ft 158kts
29-Mar-19 18:33 33.547986 -117.880949 186 5020ft 182kts
29-Mar-19 18:34 33.492092 -117.884871 186 5462ft 203kts
29-Mar-19 18:35 33.435649 -117.888359 186 6850ft 204kts
29-Mar-19 18:36 33.384121 -117.870315 130 8243ft 216kts
29-Mar-19 18:37 33.343567 -117.817654 136 9638ft 215kts
29-Mar-19 18:38 33.301565 -117.766901 136 11029ft 215kts
29-Mar-19 18:39 33.280172 -117.701589 94 12459ft 226kts
29-Mar-19 18:40 33.271016 -117.624788 95 13016ft 262kts
29-Mar-19 18:41 33.260055 -117.534770 95 12999ft 282kts
29-Mar-19 18:42 33.248469 -117.440205 95 12997ft 287kts
29-Mar-19 18:43 33.236767 -117.345277 96 12996ft 288kts
29-Mar-19 18:44 33.225002 -117.250460 96 12996ft 287kts
29-Mar-19 18:45 33.213167 -117.155667 96 12999ft 287kts
29-Mar-19 18:46 33.201303 -117.061177 96 13000ft 287kts
29-Mar-19 18:47 33.189245 -116.965775 96 13002ft 290kts
29-Mar-19 18:48 33.177063 -116.870046 96 13001ft 291kts
29-Mar-19 18:49 33.164780 -116.774159 96 13001ft 291kts
29-Mar-19 18:50 33.152441 -116.678379 96 13002ft 291kts
29-Mar-19 18:51 33.144334 -116.582726 66 12967ft 285kts
29-Mar-19 18:52 33.187717 -116.505636 50 12979ft 280kts
29-Mar-19 18:53 33.232451 -116.429444 50 12935ft 278kts
29-Mar-19 18:54 33.276538 -116.354208 50 12888ft 272kts
29-Mar-19 18:55 33.287047 -116.268462 102 12883ft 280kts
29-Mar-19 18:56 33.268317 -116.177721 102 12887ft 279kts
29-Mar-19 18:57 33.249951 -116.088078 102 12992ft 278kts
29-Mar-19 18:58 33.231125 -115.997675 102 12996ft 279kts
29-Mar-19 18:59 33.212399 -115.907550 102 13003ft 280kts
29-Mar-19 19:00 33.193842 -115.818567 102 11988ft 266kts
29-Mar-19 19:01 33.176350 -115.735092 101 10278ft 251kts
29-Mar-19 19:02 33.159758 -115.656071 101 8577ft 240kts
29-Mar-19 19:03 33.143767 -115.580166 101 6885ft 233kts
29-Mar-19 19:04 33.128471 -115.508045 101 5986ft 201kts
29-Mar-19 19:05 33.115606 -115.447231 101 5996ft 180kts
29-Mar-19 19:06 33.116397 -115.388921 26 5233ft 191kts
29-Mar-19 19:07 33.143605 -115.425914 273 4375ft 162kts
29-Mar-19 19:08 33.146117 -115.472286 244 2945ft 117kts
29-Mar-19 19:09 33.133030 -115.501049 246 1815ft 91kts
29-Mar-19 19:10 33.131084 -115.531201 272 656ft 89kts
29-Mar-19 19:11 33.113968 -115.538027 115 640ft 93kts
29-Mar-19 19:12 33.112681 -115.508061 73 829ft 92kts
29-Mar-19 19:13 33.131307 -115.507361 279 389ft 90kts
29-Mar-19 19:14 33.128812 -115.536353 235 -20ft 89kts
29-Mar-19 19:15 33.110129 -115.525884 94 448ft 95kts
29-Mar-19 19:16 33.109323 -115.493446 80 832ft 98kts
29-Mar-19 19:17 33.127658 -115.493848 304 390ft 91kts
29-Mar-19 19:18 33.131366 -115.522693 271 -178ft 63kts
29-Mar-19 19:19 33.130904 -115.526465 105 -178ft 5kts
29-Mar-19 19:20 33.130290 -115.524618 134 -178ft 9kts
29-Mar-19 19:21 33.129442 -115.523641 135 -178ft 0kts
29-Mar-19 19:22 33.129442 -115.523641 135 -178ft 0kts
29-Mar-19 19:23 33.129442 -115.523641 135 -178ft 0kts
29-Mar-19 19:24 33.129442 -115.523642 135 -178ft 0kts
29-Mar-19 19:25 33.129442 -115.523642 135 -178ft 0kts

Navigation Log

Ident Type
Flight plan parsing failed, navigation log unavailable